Time;durP1;ratioP1;P1;durP2;ratioP2;P2;SDS_P1;SDS_P2;PMS_P1;PMS_P2;Temp;Humidity;BMP_temperature;BMP_pressure;BME280_temperature;BME280_humidity;BME280_pressure;Samples;Min_cycle;Max_cycle;Signal;HPM_P1;HPM_P2
2021/11/28 00:02:21;;;;;;;55.70;22.33;;;;;;;2.21;100.00;98015.38;5046020;28;20533;-77
2021/11/28 00:04:49;;;;;;;55.38;21.60;;;;;;;2.24;100.00;98018.59;5023167;28;20057;-78
2021/11/28 00:10:15;;;;;;;57.58;19.30;;;;;;;2.26;100.00;98019.28;5020666;28;20077;-77
2021/11/28 00:15:10;;;;;;;60.08;20.75;;;;;;;2.26;100.00;98018.44;5004727;28;20049;-75
2021/11/28 00:17:36;;;;;;;58.72;22.20;;;;;;;2.32;100.00;98026.72;5038796;28;20165;-75
2021/11/28 00:20:04;;;;;;;64.30;24.67;;;;;;;2.29;100.00;98018.16;5020197;28;20144;-75
2021/11/28 00:22:30;;;;;;;59.05;20.95;;;;;;;2.36;100.00;98030.81;5020311;28;20077;-76
2021/11/28 00:24:56;;;;;;;65.32;22.98;;;;;;;2.36;100.00;98024.63;4995963;28;20800;-78
2021/11/28 00:27:24;;;;;;;56.63;18.27;;;;;;;2.34;100.00;98021.25;5021998;28;20175;-78
2021/11/28 00:29:50;;;;;;;58.30;20.48;;;;;;;2.34;100.00;98026.56;5038181;28;20049;-77
2021/11/28 00:32:16;;;;;;;59.90;27.17;;;;;;;2.44;100.00;98031.94;5019996;28;20524;-76
2021/11/28 00:34:42;;;;;;;58.55;21.92;;;;;;;2.31;100.00;98011.72;5012964;28;20049;-77
2021/11/28 00:37:10;;;;;;;50.67;18.95;;;;;;;2.47;100.00;98027.16;5044544;28;20052;-77
2021/11/28 00:39:37;;;;;;;55.17;22.65;;;;;;;2.47;100.00;98032.50;5060555;28;20049;-76
2021/11/28 00:42:06;;;;;;;50.53;21.67;;;;;;;2.50;100.00;98037.56;5056586;28;20081;-76
2021/11/28 00:44:32;;;;;;;51.05;19.35;;;;;;;2.46;100.00;98020.16;5038171;28;20063;-77
2021/11/28 00:46:58;;;;;;;50.05;19.92;;;;;;;2.51;100.00;98022.38;5039246;28;20102;-77
2021/11/28 00:49:26;;;;;;;47.58;19.08;;;;;;;2.43;100.00;98007.09;5037804;28;20041;-76
2021/11/28 00:52:01;;;;;;;49.42;21.05;;;;;;;2.55;100.00;98021.94;5058695;28;20135;-75
2021/11/28 00:54:29;;;;;;;44.22;18.15;;;;;;;2.59;100.00;98018.00;5005486;28;20086;-75
2021/11/28 00:56:57;;;;;;;47.47;21.08;;;;;;;2.58;100.00;98021.69;5055643;28;20052;-75
2021/11/28 00:59:26;;;;;;;47.95;19.35;;;;;;;2.59;100.00;98035.84;5022918;28;20045;-75
2021/11/28 01:01:52;;;;;;;52.92;22.35;;;;;;;2.58;100.00;98024.34;5022522;28;20501;-76
2021/11/28 01:04:19;;;;;;;53.40;23.35;;;;;;;2.45;100.00;98009.59;5036233;28;20085;-76
2021/11/28 01:06:45;;;;;;;52.25;22.38;;;;;;;2.60;100.00;98025.06;5019068;28;20049;-78
2021/11/28 01:09:13;;;;;;;47.83;23.73;;;;;;;2.65;100.00;98029.97;5017960;28;20037;-78
2021/11/28 01:11:40;;;;;;;45.17;16.90;;;;;;;2.59;100.00;98004.69;5019572;28;20053;-76
2021/11/28 01:14:05;;;;;;;45.17;21.52;;;;;;;2.60;100.00;98013.56;5040200;28;20049;-76
2021/11/28 01:16:34;;;;;;;46.53;23.42;;;;;;;2.70;100.00;98022.38;5022256;28;20049;-77
2021/11/28 01:19:00;;;;;;;43.17;20.60;;;;;;;2.70;100.00;98022.38;5037845;28;20147;-79
2021/11/28 01:21:26;;;;;;;43.40;17.60;;;;;;;2.72;100.00;98024.91;5004149;28;20053;-75
2021/11/28 01:23:53;;;;;;;38.00;18.25;;;;;;;2.73;100.00;98022.09;5019235;28;20535;-76
2021/11/28 01:26:19;;;;;;;42.10;19.55;;;;;;;2.74;100.00;98022.91;5005813;28;20048;-78
2021/11/28 01:28:46;;;;;;;41.58;20.85;;;;;;;2.74;100.00;98017.59;5023046;28;20481;-74
2021/11/28 01:31:12;;;;;;;44.70;25.33;;;;;;;2.56;100.00;97982.78;5036968;28;20040;-73
2021/11/28 01:33:39;;;;;;;39.63;17.45;;;;;;;2.65;100.00;98004.13;5002988;28;20052;-76
2021/11/28 01:36:05;;;;;;;40.75;19.20;;;;;;;2.44;100.00;97971.44;5004537;28;20059;-75
2021/11/28 01:38:31;;;;;;;42.72;19.55;;;;;;;2.74;100.00;98018.41;5016710;28;20057;-75
2021/11/28 01:40:57;;;;;;;42.42;20.65;;;;;;;2.78;100.00;98019.84;5001187;28;20099;-75
2021/11/28 01:43:23;;;;;;;41.60;20.10;;;;;;;2.77;100.00;98019.97;5000822;28;20069;-76
2021/11/28 01:45:52;;;;;;;44.42;17.88;;;;;;;2.79;100.00;98036.69;5009416;28;20100;-76
2021/11/28 01:48:18;;;;;;;43.53;20.98;;;;;;;2.83;100.00;98032.75;5018197;28;20060;-75
2021/11/28 01:50:48;;;;;;;48.35;24.27;;;;;;;2.80;100.00;98033.03;5018813;28;20494;-75
2021/11/28 01:53:18;;;;;;;48.85;21.00;;;;;;;2.83;100.00;98033.59;5016160;28;20501;-74
2021/11/28 01:55:45;;;;;;;43.80;18.20;;;;;;;2.83;100.00;98024.75;5033617;28;20072;-77
2021/11/28 01:58:19;;;;;;;46.63;22.30;;;;;;;2.89;100.00;98026.88;5018350;28;20049;-75
2021/11/28 02:00:49;;;;;;;44.60;18.70;;;;;;;2.90;100.00;98023.19;5002178;28;20052;-75
2021/11/28 02:03:16;;;;;;;41.38;19.55;;;;;;;2.85;100.00;98012.09;5026552;28;20057;-76
2021/11/28 02:05:46;;;;;;;48.67;24.00;;;;;;;2.94;100.00;98029.09;5013552;28;20045;-74
2021/11/28 02:08:12;;;;;;;46.28;22.35;;;;;;;2.98;100.00;98031.31;5046320;28;20079;-75
2021/11/28 02:10:38;;;;;;;43.42;20.52;;;;;;;2.74;100.00;97993.56;5026343;28;20139;-75
2021/11/28 02:13:04;;;;;;;51.35;24.65;;;;;;;2.81;100.00;98002.69;5038185;28;20044;-75
2021/11/28 02:15:32;;;;;;;46.28;22.60;;;;;;;2.98;100.00;98031.31;5041292;28;20049;-76
2021/11/28 02:17:58;;;;;;;45.00;24.90;;;;;;;2.97;100.00;98023.47;5043534;28;20041;-75
2021/11/28 02:20:28;;;;;;;40.08;19.10;;;;;;;3.01;100.00;98015.03;5064860;28;20053;-76
2021/11/28 02:22:55;;;;;;;46.65;22.75;;;;;;;3.07;100.00;98025.13;5011972;28;20051;-77
2021/11/28 02:25:24;;;;;;;44.47;21.00;;;;;;;3.07;100.00;98019.78;5044824;28;20049;-74
2021/11/28 02:27:53;;;;;;;45.33;21.20;;;;;;;3.04;100.00;98020.09;5044785;28;20113;-75
2021/11/28 02:30:19;;;;;;;38.60;18.90;;;;;;;3.10;100.00;98024.81;5012568;28;20033;-76
2021/11/28 02:32:47;;;;;;;40.90;20.42;;;;;;;3.09;100.00;98017.81;5029466;28;20045;-73
2021/11/28 02:35:16;;;;;;;40.53;17.30;;;;;;;3.14;100.00;98028.91;5011607;28;20520;-75
2021/11/28 02:37:42;;;;;;;40.05;16.95;;;;;;;3.17;100.00;98035.78;5033318;28;20416;-76
2021/11/28 02:40:14;;;;;;;41.95;20.83;;;;;;;3.16;100.00;98027.91;5240571;23;20016;-78
2021/11/28 02:42:41;;;;;;;39.75;23.15;;;;;;;3.19;100.00;98032.97;5072387;28;20052;-77
2021/11/28 02:45:08;;;;;;;40.72;21.77;;;;;;;3.02;100.00;98002.50;5043630;28;20167;-77
2021/11/28 02:47:36;;;;;;;42.40;20.88;;;;;;;3.10;100.00;98014.16;5059708;28;20039;-76
2021/11/28 02:50:04;;;;;;;39.72;21.10;;;;;;;3.25;100.00;98029.72;5076694;28;20025;-76
2021/11/28 02:52:30;;;;;;;43.40;21.42;;;;;;;3.24;100.00;98033.38;5076953;28;20052;-77
2021/11/28 02:54:59;;;;;;;42.97;22.15;;;;;;;3.25;100.00;98029.72;5077729;28;20033;-77
2021/11/28 02:57:27;;;;;;;40.13;20.58;;;;;;;2.81;100.00;97954.66;5076679;28;20040;-77
2021/11/28 02:59:54;;;;;;;41.38;22.15;;;;;;;3.26;100.00;98031.41;5060056;28;20043;-76
2021/11/28 03:02:22;;;;;;;40.00;19.33;;;;;;;3.29;100.00;98039.09;5059882;28;20053;-78
2021/11/28 03:04:56;;;;;;;42.33;18.52;;;;;;;3.30;100.00;98046.16;5051325;28;20056;-76
2021/11/28 03:07:22;;;;;;;42.83;18.13;;;;;;;3.31;100.00;98045.16;5028247;28;20053;-74
2021/11/28 03:09:50;;;;;;;37.63;18.63;;;;;;;2.87;100.00;97980.78;5062028;28;20056;-75
2021/11/28 03:12:16;;;;;;;40.33;21.27;;;;;;;3.30;100.00;98048.81;5064764;28;20048;-76
2021/11/28 03:14:42;;;;;;;37.78;20.48;;;;;;;3.25;100.00;98038.56;5085768;28;20127;-77
2021/11/28 03:17:08;;;;;;;38.13;18.05;;;;;;;3.19;100.00;98028.47;5083877;28;20111;-75
2021/11/28 03:19:34;;;;;;;39.55;23.15;;;;;;;3.39;100.00;98066.63;5082408;28;20050;-75
2021/11/28 03:22:03;;;;;;;37.60;20.10;;;;;;;3.40;100.00;98068.34;5081927;28;20052;-77
2021/11/28 03:24:29;;;;;;;38.55;19.92;;;;;;;3.42;100.00;98071.69;5083143;28;20061;-76
2021/11/28 03:26:55;;;;;;;36.03;20.20;;;;;;;3.38;100.00;98059.63;5082096;28;20059;-76
2021/11/28 03:29:23;;;;;;;37.38;20.10;;;;;;;3.45;100.00;98060.72;5064710;28;20036;-76
2021/11/28 03:32:01;;;;;;;36.60;17.88;;;;;;;3.46;100.00;98051.72;5064686;28;20457;-77
2021/11/28 03:34:36;;;;;;;36.08;18.42;;;;;;;3.45;100.00;98071.41;5064655;28;20063;-75
2021/11/28 03:37:32;;;;;;;38.05;20.85;;;;;;;3.48;100.00;98071.13;5056231;28;20063;-76
2021/11/28 03:39:59;;;;;;;39.67;21.50;;;;;;;3.35;100.00;98043.88;5078529;28;20047;-77
2021/11/28 03:42:30;;;;;;;37.30;18.60;;;;;;;3.40;100.00;98065.66;5077579;28;20486;-76
2021/11/28 03:44:56;;;;;;;40.83;22.80;;;;;;;3.39;100.00;98062.13;5061357;28;20055;-79
2021/11/28 03:47:22;;;;;;;38.03;21.45;;;;;;;3.27;100.00;98033.09;5078815;28;20044;-76
2021/11/28 03:49:55;;;;;;;37.28;20.73;;;;;;;3.45;100.00;98082.09;5078525;28;20053;-76
2021/11/28 03:52:21;;;;;;;38.70;21.00;;;;;;;3.46;100.00;98078.44;5079871;28;20051;-76
2021/11/28 03:54:47;;;;;;;37.72;19.65;;;;;;;3.43;100.00;98068.03;5064498;28;20032;-78
2021/11/28 03:57:18;;;;;;;40.20;23.65;;;;;;;3.41;100.00;98074.53;5079404;28;20497;-79
2021/11/28 03:59:44;;;;;;;37.60;20.00;;;;;;;3.41;100.00;98070.00;5062000;28;20056;-75
2021/11/28 04:02:09;;;;;;;37.90;20.63;;;;;;;3.36;100.00;98064.25;5030463;28;20045;-76
2021/11/28 04:04:35;;;;;;;36.10;17.92;;;;;;;3.31;100.00;98053.16;5080655;28;20053;-76
2021/11/28 04:07:04;;;;;;;40.92;20.17;;;;;;;3.50;100.00;98085.16;5081296;28;20067;-78
2021/11/28 04:09:32;;;;;;;36.03;19.85;;;;;;;3.29;100.00;98052.47;5062414;28;20049;-76
2021/11/28 04:11:59;;;;;;;40.08;22.45;;;;;;;3.51;100.00;98092.22;5047892;28;20040;-76
2021/11/28 04:14:25;;;;;;;41.25;22.48;;;;;;;3.30;100.00;98068.34;5045114;28;20060;-79
2021/11/28 04:16:51;;;;;;;37.50;17.35;;;;;;;3.42;100.00;98093.06;5046623;28;20059;-78
2021/11/28 04:19:17;;;;;;;40.88;20.08;;;;;;;3.49;100.00;98110.19;5080149;28;20052;-79
2021/11/28 04:21:46;;;;;;;41.95;20.88;;;;;;;3.48;100.00;98103.19;5062909;28;20040;-76
2021/11/28 04:24:14;;;;;;;40.85;19.05;;;;;;;3.47;100.00;98109.47;5046327;28;20051;-77
2021/11/28 04:26:40;;;;;;;42.08;20.73;;;;;;;3.46;100.00;98113.16;5045303;28;20052;-77
2021/11/28 04:29:08;;;;;;;41.15;20.73;;;;;;;3.45;100.00;98108.81;5060917;28;20055;-78
2021/11/28 04:31:35;;;;;;;42.65;18.98;;;;;;;3.10;100.00;98059.53;5061840;28;20048;-78
2021/11/28 04:34:02;;;;;;;41.05;19.17;;;;;;;3.43;100.00;98118.78;5060844;28;20052;-77
2021/11/28 04:36:28;;;;;;;45.08;22.58;;;;;;;3.29;100.00;98097.84;5025955;28;20044;-77
2021/11/28 04:38:54;;;;;;;45.88;25.50;;;;;;;3.31;100.00;98107.41;5059247;28;20491;-80
2021/11/28 04:41:20;;;;;;;43.97;19.63;;;;;;;3.43;100.00;98126.78;5044683;28;20049;-77
2021/11/28 04:43:54;;;;;;;44.75;20.70;;;;;;;3.33;100.00;98104.63;5054906;28;20533;-78
2021/11/28 04:46:21;;;;;;;46.47;20.02;;;;;;;3.44;100.00;98128.50;5055815;28;20043;-78
2021/11/28 04:48:48;;;;;;;45.38;22.67;;;;;;;3.36;100.00;98123.00;5057012;28;20172;-77
2021/11/28 04:51:25;;;;;;;46.83;21.45;;;;;;;3.42;100.00;98135.81;5037269;28;20096;-76
2021/11/28 04:53:52;;;;;;;42.55;19.42;;;;;;;3.47;100.00;98144.22;5042509;28;20519;-76
2021/11/28 04:56:18;;;;;;;46.67;20.92;;;;;;;3.47;100.00;98138.88;5062937;28;20040;-78
2021/11/28 04:58:44;;;;;;;46.58;22.95;;;;;;;3.27;100.00;98107.84;5047324;28;20071;-79
2021/11/28 05:01:10;;;;;;;52.65;23.02;;;;;;;3.44;100.00;98139.19;5076716;28;20477;-80
2021/11/28 05:03:36;;;;;;;46.22;20.20;;;;;;;3.49;100.00;98152.94;5048132;28;20056;-76
2021/11/28 05:06:30;;;;;;;43.83;20.88;;;;;;;3.49;100.00;98147.59;5067433;28;20041;-79
2021/11/28 05:09:15;;;;;;;45.58;23.30;;;;;;;3.51;100.00;98161.66;5065509;28;20056;-78
2021/11/28 05:11:41;;;;;;;40.70;21.08;;;;;;;3.32;100.00;98130.47;5050322;28;20041;-77
2021/11/28 05:14:08;;;;;;;39.00;21.33;;;;;;;3.39;100.00;98130.75;5041021;28;20477;-78
2021/11/28 05:16:38;;;;;;;42.08;22.35;;;;;;;3.56;100.00;98159.41;5010048;28;20044;-77
2021/11/28 05:19:13;;;;;;;45.45;22.60;;;;;;;3.27;100.00;98122.06;5089100;28;20127;-74
2021/11/28 05:22:00;;;;;;;39.83;19.70;;;;;;;3.48;100.00;98145.91;5071004;28;20078;-76
2021/11/28 05:24:29;;;;;;;34.55;18.48;;;;;;;3.63;100.00;98173.03;5060099;28;20067;-76
2021/11/28 05:26:55;;;;;;;36.83;18.25;;;;;;;3.57;100.00;98166.41;5061936;28;20044;-72
2021/11/28 05:29:21;;;;;;;35.08;19.27;;;;;;;3.63;100.00;98176.53;5052924;28;20584;-77
2021/11/28 05:31:46;;;;;;;35.92;18.85;;;;;;;3.66;100.00;98174.53;5070224;28;20086;-75
2021/11/28 05:34:31;;;;;;;33.00;16.42;;;;;;;3.49;100.00;98150.28;5073421;28;20036;-74
2021/11/28 05:37:11;;;;;;;35.38;19.23;;;;;;;3.65;100.00;98180.88;5074876;28;20044;-71
2021/11/28 05:39:40;;;;;;;30.67;16.83;;;;;;;3.66;100.00;98179.88;5070414;28;20099;-76
2021/11/28 05:42:06;;;;;;;32.63;17.58;;;;;;;3.60;100.00;98181.31;5063573;28;20105;-76
2021/11/28 05:44:32;;;;;;;31.75;17.13;;;;;;;3.66;100.00;98190.59;5041347;28;20070;-74
2021/11/28 05:47:29;;;;;;;28.15;14.02;;;;;;;3.67;99.74;98181.59;5042042;28;20072;-75
2021/11/28 05:50:29;;;;;;;31.67;15.15;;;;;;;3.72;100.00;98201.53;5039383;28;20044;-74
2021/11/28 05:52:55;;;;;;;27.85;15.75;;;;;;;3.57;100.00;98182.44;5030480;28;20048;-76
2021/11/28 05:55:23;;;;;;;29.38;16.90;;;;;;;3.60;100.00;98186.66;5049145;28;20044;-74
2021/11/28 05:57:52;;;;;;;26.98;14.65;;;;;;;3.73;99.87;98218.41;5059813;28;20045;-75
2021/11/28 06:00:19;;;;;;;26.42;14.02;;;;;;;3.71;99.85;98220.41;5075550;28;20044;-74
2021/11/28 06:02:54;;;;;;;27.33;13.57;;;;;;;3.77;100.00;98222.53;5090190;28;20052;-75
2021/11/28 06:05:45;;;;;;;27.00;16.98;;;;;;;3.79;99.18;98221.38;5090819;28;20121;-76
2021/11/28 06:08:24;;;;;;;24.63;13.20;;;;;;;3.63;99.20;98192.56;5079500;28;20051;-75
2021/11/28 06:10:52;;;;;;;26.83;15.55;;;;;;;3.78;99.43;98229.53;5041809;28;20048;-74
2021/11/28 06:13:17;;;;;;;28.67;17.02;;;;;;;3.84;99.02;98239.66;5071986;28;20036;-77
2021/11/28 06:15:51;;;;;;;26.20;14.13;;;;;;;3.76;99.08;98226.16;5060244;28;20040;-74
2021/11/28 06:18:50;;;;;;;26.23;12.73;;;;;;;3.63;98.98;98208.59;4973748;28;20057;-73
2021/11/28 06:21:39;;;;;;;27.42;14.70;;;;;;;3.86;98.84;98246.53;4995208;28;20045;-72
2021/11/28 06:24:11;;;;;;;25.13;13.32;;;;;;;3.87;98.81;98239.34;5008959;28;20194;-74
2021/11/28 06:26:40;;;;;;;27.60;14.32;;;;;;;3.89;98.41;98239.22;5042944;28;20041;-68
2021/11/28 06:29:10;;;;;;;26.30;13.30;;;;;;;3.67;98.49;98200.31;5030310;28;20042;-79
2021/11/28 06:31:36;;;;;;;26.23;13.68;;;;;;;3.87;98.44;98242.03;5012745;28;20056;-68
2021/11/28 06:34:20;;;;;;;25.30;13.65;;;;;;;3.91;98.26;98256.78;4990341;28;20041;-68
2021/11/28 06:37:05;;;;;;;24.70;12.88;;;;;;;3.91;98.10;98251.44;5024995;28;20506;-64
2021/11/28 06:39:50;;;;;;;25.63;13.30;;;;;;;3.87;97.73;98264.25;5026701;28;20091;-61
2021/11/28 06:42:36;;;;;;;24.15;13.75;;;;;;;3.87;97.57;98269.59;5003185;28;20041;-74
2021/11/28 06:45:02;;;;;;;24.98;13.32;;;;;;;3.85;97.62;98266.25;4995191;28;20094;-74
2021/11/28 06:47:30;;;;;;;23.33;13.65;;;;;;;3.87;96.92;98269.59;5003564;28;20042;-70
2021/11/28 06:49:56;;;;;;;22.10;12.05;;;;;;;3.84;96.85;98263.72;4999210;28;20098;-67
2021/11/28 06:52:42;;;;;;;21.63;12.75;;;;;;;3.69;96.32;98235.72;4989220;28;20068;-70
2021/11/28 06:55:32;;;;;;;21.33;10.50;;;;;;;3.80;95.53;98256.94;5015550;28;20057;-73
2021/11/28 06:58:24;;;;;;;19.95;11.32;;;;;;;3.81;95.44;98258.66;5010508;28;20125;-70
2021/11/28 07:00:50;;;;;;;21.55;11.13;;;;;;;3.74;95.42;98257.53;5027293;28;20052;-72
2021/11/28 07:03:16;;;;;;;18.95;11.32;;;;;;;3.73;95.19;98255.84;5027834;28;20041;-69
2021/11/28 07:06:01;;;;;;;21.05;11.73;;;;;;;3.63;94.95;98255.88;5027864;28;20050;-72
2021/11/28 07:08:28;;;;;;;17.38;8.48;;;;;;;3.73;93.80;98277.22;5012044;28;20048;-76
2021/11/28 07:10:56;;;;;;;19.33;11.15;;;;;;;3.66;94.15;98262.72;5009857;28;20045;-64
2021/11/28 07:13:24;;;;;;;17.88;10.48;;;;;;;3.60;93.06;98264.16;4986548;28;20037;-72
2021/11/28 07:15:50;;;;;;;17.80;9.50;;;;;;;3.76;92.21;98287.63;5011926;28;20498;-69
2021/11/28 07:18:30;;;;;;;18.60;9.90;;;;;;;3.71;92.43;98279.19;5010941;28;20462;-69
2021/11/28 07:21:05;;;;;;;17.67;8.32;;;;;;;3.71;91.71;98282.72;5004002;28;20373;-70
2021/11/28 07:23:32;;;;;;;16.67;8.50;;;;;;;3.82;91.14;98319.16;4969912;28;20471;-70
2021/11/28 07:26:01;;;;;;;17.15;8.43;;;;;;;3.72;91.34;98302.25;4995400;28;20049;-69
2021/11/28 07:28:31;;;;;;;14.65;7.57;;;;;;;3.84;90.78;98327.88;5000719;28;20042;-70
2021/11/28 07:30:58;;;;;;;15.07;7.90;;;;;;;3.80;90.51;98329.13;5025904;28;20088;-68
2021/11/28 07:33:42;;;;;;;13.80;6.82;;;;;;;3.81;89.58;98336.19;5001088;28;20490;-73
2021/11/28 07:36:31;;;;;;;13.35;7.57;;;;;;;3.80;89.01;98345.16;5011897;28;20046;-70
2021/11/28 07:38:59;;;;;;;14.88;7.47;;;;;;;3.73;88.99;98339.56;4985025;28;20088;-69
2021/11/28 07:41:25;;;;;;;17.10;8.43;;;;;;;3.75;89.41;98345.59;5023830;28;20033;-69
2021/11/28 07:43:57;;;;;;;15.60;8.07;;;;;;;3.71;88.79;98343.34;4995635;28;20099;-70
2021/11/28 07:46:55;;;;;;;15.38;8.13;;;;;;;3.67;88.57;98341.94;4992312;28;20050;-69
2021/11/28 07:49:23;;;;;;;15.52;7.80;;;;;;;3.67;88.17;98353.47;5008612;28;20129;-69
2021/11/28 07:51:50;;;;;;;14.85;7.43;;;;;;;3.72;88.08;98355.72;4984011;28;20057;-68
2021/11/28 07:54:17;;;;;;;13.52;6.80;;;;;;;3.67;86.63;98347.28;5009206;28;20118;-67
2021/11/28 07:56:44;;;;;;;14.20;7.13;;;;;;;3.72;86.66;98374.41;4968464;28;20052;-68
2021/11/28 07:59:30;;;;;;;13.85;7.45;;;;;;;3.65;86.07;98370.63;4991959;28;20140;-69
2021/11/28 08:02:01;;;;;;;12.50;6.82;;;;;;;3.62;84.85;98364.59;5002750;28;20057;-72
2021/11/28 08:04:39;;;;;;;12.98;6.13;;;;;;;3.44;84.44;98331.53;5025290;28;20415;-70
2021/11/28 08:07:23;;;;;;;12.38;5.45;;;;;;;3.71;83.11;98386.09;5029482;28;20057;-70
2021/11/28 08:10:10;;;;;;;10.68;5.10;;;;;;;3.67;83.03;98364.16;4974106;28;20159;-70
2021/11/28 08:12:36;;;;;;;11.25;5.20;;;;;;;3.75;82.57;98358.09;4977365;28;20042;-68
2021/11/28 08:15:05;;;;;;;11.93;5.90;;;;;;;3.72;81.78;98345.88;4981325;28;20168;-71
2021/11/28 08:17:34;;;;;;;10.00;4.93;;;;;;;3.89;81.96;98372.91;5004292;28;20414;-70
2021/11/28 08:20:00;;;;;;;13.07;4.70;;;;;;;3.91;81.92;98361.06;5002458;28;20120;-68
2021/11/28 08:22:26;;;;;;;11.65;5.75;;;;;;;3.73;81.58;98334.22;4994885;28;20077;-72
2021/11/28 08:24:52;;;;;;;10.88;4.95;;;;;;;3.91;81.63;98363.72;5011718;28;20048;-70
2021/11/28 08:27:18;;;;;;;10.02;4.25;;;;;;;3.86;81.65;98363.31;5006661;28;20419;-70
2021/11/28 08:29:45;;;;;;;14.38;4.78;;;;;;;3.86;81.71;98358.81;5042719;28;20597;-69
2021/11/28 08:32:21;;;;;;;11.52;5.03;;;;;;;3.73;81.41;98355.59;5001964;28;20041;-76
2021/11/28 08:35:09;;;;;;;11.85;4.65;;;;;;;3.91;81.40;98378.94;4991473;28;20140;-74
2021/11/28 08:37:45;;;;;;;9.65;4.78;;;;;;;3.89;81.21;98372.91;5000642;28;20037;-75
2021/11/28 08:40:14;;;;;;;10.63;4.70;;;;;;;3.68;81.30;98351.63;5040015;28;20120;-74
2021/11/28 08:42:40;;;;;;;13.18;4.80;;;;;;;3.81;80.88;98373.59;5003445;28;20088;-72
2021/11/28 08:45:07;;;;;;;10.60;4.32;;;;;;;3.87;80.86;98381.03;4974972;28;20053;-71
2021/11/28 08:47:40;;;;;;;13.05;5.25;;;;;;;3.85;81.50;98385.69;4971790;28;20486;-72
2021/11/28 08:50:08;;;;;;;13.02;6.68;;;;;;;3.78;81.66;98389.91;5041750;28;20409;-72
2021/11/28 08:52:34;;;;;;;11.73;6.60;;;;;;;3.71;82.37;98391.44;4993745;28;20044;-72
2021/11/28 08:54:59;;;;;;;13.00;6.53;;;;;;;3.54;82.17;98375.09;4993087;28;20061;-71
2021/11/28 08:57:25;;;;;;;12.38;5.72;;;;;;;3.65;83.74;98400.00;4981045;28;20425;-71
2021/11/28 08:59:51;;;;;;;12.60;5.85;;;;;;;3.67;83.19;98395.38;4993860;28;20956;-70
2021/11/28 09:02:18;;;;;;;12.75;5.85;;;;;;;3.65;83.71;98413.38;5012866;28;20038;-73
2021/11/28 09:04:45;;;;;;;13.75;7.35;;;;;;;3.60;83.92;98398.59;5011307;28;20061;-72
2021/11/28 09:07:11;;;;;;;14.20;6.82;;;;;;;3.59;84.60;98410.28;5011920;28;20533;-72
2021/11/28 09:09:38;;;;;;;13.18;6.57;;;;;;;3.34;84.99;98368.03;5021159;28;20045;-72
2021/11/28 09:12:05;;;;;;;14.15;7.55;;;;;;;3.45;85.46;98410.66;5024392;28;20076;-68
2021/11/28 09:14:32;;;;;;;13.57;6.45;;;;;;;3.41;86.04;98411.09;5028921;28;20053;-74
2021/11/28 09:17:00;;;;;;;13.10;6.70;;;;;;;3.43;86.64;98415.28;4983968;28;20344;-79
2021/11/28 09:22:22;;;;;;;14.85;6.60;;;;;;;3.24;87.13;98399.22;5013217;28;20114;-72
2021/11/28 09:24:48;;;;;;;15.50;7.75;;;;;;;3.13;87.65;98394.81;5007554;28;20049;-69
2021/11/28 09:27:14;;;;;;;14.75;7.60;;;;;;;3.16;88.06;98396.38;4994689;28;20048;-75
2021/11/28 09:29:45;;;;;;;16.48;9.13;;;;;;;3.26;88.21;98418.63;5028417;28;20064;-70
2021/11/28 09:32:13;;;;;;;14.50;7.45;;;;;;;3.08;88.51;98400.56;5013917;28;20046;-72
2021/11/28 09:34:40;;;;;;;15.93;8.02;;;;;;;3.23;88.86;98421.56;5016589;28;20085;-75
2021/11/28 09:37:09;;;;;;;15.48;7.32;;;;;;;3.11;88.99;98399.47;5011884;28;20135;-71
2021/11/28 09:39:37;;;;;;;17.05;8.60;;;;;;;3.21;88.59;98415.50;5036642;28;20045;-73
2021/11/28 09:42:06;;;;;;;17.02;9.07;;;;;;;3.20;88.76;98440.53;4993771;28;20044;-72
2021/11/28 09:44:35;;;;;;;15.27;8.18;;;;;;;2.87;88.28;98394.44;4979132;28;20038;-69
2021/11/28 09:47:04;;;;;;;16.52;8.85;;;;;;;3.00;89.10;98418.22;5033454;28;20033;-78
2021/11/28 09:49:30;;;;;;;18.17;8.95;;;;;;;3.00;89.28;98407.53;5037276;28;20040;-64
2021/11/28 09:52:01;;;;;;;21.60;10.43;;;;;;;3.17;89.31;98446.13;5050991;28;20112;-68
2021/11/28 09:54:28;;;;;;;16.85;9.20;;;;;;;3.14;89.53;98442.78;5054344;28;20140;-75
2021/11/28 09:56:54;;;;;;;21.88;10.15;;;;;;;2.90;89.70;98413.72;5020992;28;20052;-73
2021/11/28 09:59:21;;;;;;;20.73;12.02;;;;;;;3.06;89.61;98450.56;4979942;28;20049;-71
2021/11/28 10:01:47;;;;;;;21.40;10.32;;;;;;;3.13;89.98;98454.41;5019022;28;20052;-72
2021/11/28 10:04:13;;;;;;;19.25;10.20;;;;;;;2.90;90.03;98429.72;5014981;28;20046;-71
2021/11/28 10:06:39;;;;;;;24.25;10.23;;;;;;;2.82;90.24;98407.34;5009918;28;20575;-69
2021/11/28 10:09:06;;;;;;;17.38;10.68;;;;;;;2.88;89.71;98425.47;5017256;28;20423;-74
2021/11/28 10:11:41;;;;;;;18.83;10.43;;;;;;;3.16;90.19;98477.34;5020752;28;20052;-76
2021/11/28 10:14:09;;;;;;;18.83;9.20;;;;;;;3.19;89.99;98481.56;4998551;28;20053;-72
2021/11/28 10:16:36;;;;;;;19.77;11.43;;;;;;;3.16;89.50;98488.00;5027119;28;20052;-71
2021/11/28 10:19:02;;;;;;;19.40;10.23;;;;;;;3.07;90.08;98473.66;5005716;28;20057;-68
2021/11/28 10:21:32;;;;;;;20.33;9.90;;;;;;;3.00;88.50;98467.16;4985715;28;20578;-76
2021/11/28 10:24:09;;;;;;;17.50;9.50;;;;;;;3.08;88.54;98485.16;5032526;28;20048;-71
2021/11/28 10:26:38;;;;;;;18.27;9.65;;;;;;;3.12;88.39;98492.78;5031629;28;20044;-70
2021/11/28 10:29:05;;;;;;;17.98;8.18;;;;;;;3.27;87.95;98505.78;5031907;28;20114;-68
2021/11/28 10:31:41;;;;;;;16.35;8.82;;;;;;;3.22;87.53;98502.66;5050117;28;20489;-69
2021/11/28 10:34:17;;;;;;;18.20;9.13;;;;;;;3.24;87.08;98517.56;5020647;28;20465;-70
2021/11/28 10:36:43;;;;;;;15.32;8.10;;;;;;;3.28;85.93;98518.16;5049208;28;20037;-69
2021/11/28 10:39:18;;;;;;;14.55;8.32;;;;;;;3.18;85.40;98511.91;5047086;28;20433;-68
2021/11/28 10:41:51;;;;;;;14.75;6.53;;;;;;;3.29;84.10;98520.69;5032970;28;20442;-67
2021/11/28 10:44:19;;;;;;;13.52;6.80;;;;;;;3.25;82.84;98513.06;5007348;28;20049;-69
2021/11/28 10:46:46;;;;;;;13.77;6.72;;;;;;;3.21;82.72;98516.97;5014053;28;20048;-68
2021/11/28 10:49:18;;;;;;;13.50;6.70;;;;;;;3.14;82.05;98501.50;5014420;28;20157;-70
2021/11/28 10:51:47;;;;;;;13.52;5.90;;;;;;;3.24;81.07;98522.91;5006202;28;20124;-69
2021/11/28 10:54:31;;;;;;;17.85;7.05;;;;;;;3.32;81.29;98536.44;5025809;28;20094;-69
2021/11/28 10:57:07;;;;;;;13.30;5.75;;;;;;;3.38;80.17;98533.25;5032634;28;20060;-69
2021/11/28 10:59:37;;;;;;;13.15;6.20;;;;;;;3.41;79.95;98550.84;5033840;28;20076;-69
2021/11/28 11:02:33;;;;;;;13.60;6.63;;;;;;;3.38;79.53;98545.75;5001520;28;20098;-73
2021/11/28 11:05:01;;;;;;;13.65;6.57;;;;;;;3.40;79.53;98538.47;5059603;28;20136;-68
2021/11/28 11:07:40;;;;;;;14.73;6.95;;;;;;;3.43;79.55;98548.03;5047948;28;20765;-69
2021/11/28 11:10:19;;;;;;;14.35;6.93;;;;;;;3.18;79.92;98525.25;5027358;28;20072;-67
2021/11/28 11:12:46;;;;;;;13.25;5.88;;;;;;;3.43;80.05;98554.19;5022775;28;20512;-73
2021/11/28 11:15:15;;;;;;;14.75;7.13;;;;;;;3.34;80.43;98533.66;5011178;28;20502;-73
2021/11/28 11:17:56;;;;;;;16.70;7.88;;;;;;;3.19;80.02;98521.63;5006575;28;20040;-71
2021/11/28 11:20:28;;;;;;;15.00;6.32;;;;;;;3.28;79.98;98534.16;5015366;28;20056;-69
2021/11/28 11:22:55;;;;;;;18.83;7.65;;;;;;;3.39;80.32;98561.63;4992911;28;20049;-71
2021/11/28 11:25:30;;;;;;;16.40;6.95;;;;;;;3.31;80.60;98549.94;5034437;28;20040;-73
2021/11/28 11:28:12;;;;;;;13.57;6.57;;;;;;;3.36;80.64;98563.72;4990729;28;20052;-69
2021/11/28 11:30:40;;;;;;;14.40;7.18;;;;;;;3.36;80.96;98553.03;4989943;28;20136;-69
2021/11/28 11:33:07;;;;;;;14.95;6.13;;;;;;;3.38;81.32;98556.44;4998112;28;20540;-71
2021/11/28 11:35:43;;;;;;;16.20;7.40;;;;;;;3.28;81.42;98550.19;5006493;28;20178;-70
2021/11/28 11:38:14;;;;;;;16.20;7.13;;;;;;;3.24;81.98;98562.97;5035123;28;20060;-70
2021/11/28 11:40:41;;;;;;;16.33;7.78;;;;;;;3.14;83.03;98565.59;5028147;28;20398;-73
2021/11/28 11:43:10;;;;;;;16.65;8.45;;;;;;;3.11;83.65;98570.34;4984888;28;20044;-75
2021/11/28 11:45:36;;;;;;;17.15;6.68;;;;;;;3.13;84.08;98579.91;5033616;28;20398;-69
2021/11/28 11:48:04;;;;;;;15.38;6.80;;;;;;;3.13;84.41;98585.25;4989111;28;20669;-66